sensor_id;sensor_type;location;lat;lon;timestamp;temperature;humidity
1878;DHT22;939;51.426;6.972;2023-12-04T00:01:14;2.10;99.90
1878;DHT22;939;51.426;6.972;2023-12-04T00:03:41;2.10;99.90
1878;DHT22;939;51.426;6.972;2023-12-04T00:06:09;2.10;99.90
1878;DHT22;939;51.426;6.972;2023-12-04T00:08:37;2.20;99.90
1878;DHT22;939;51.426;6.972;2023-12-04T00:11:04;2.20;99.90
1878;DHT22;939;51.426;6.972;2023-12-04T00:13:31;2.20;99.90
1878;DHT22;939;51.426;6.972;2023-12-04T00:15:58;2.10;99.90
1878;DHT22;939;51.426;6.972;2023-12-04T00:18:27;2.10;99.90
1878;DHT22;939;51.426;6.972;2023-12-04T00:20:53;2.10;99.90
1878;DHT22;939;51.426;6.972;2023-12-04T00:23:20;2.00;99.90
1878;DHT22;939;51.426;6.972;2023-12-04T00:25:47;2.00;99.90
1878;DHT22;939;51.426;6.972;2023-12-04T00:28:14;1.90;99.90
1878;DHT22;939;51.426;6.972;2023-12-04T00:30:41;2.00;99.90
1878;DHT22;939;51.426;6.972;2023-12-04T00:33:08;2.00;99.90
1878;DHT22;939;51.426;6.972;2023-12-04T00:35:37;2.00;99.90
1878;DHT22;939;51.426;6.972;2023-12-04T00:38:03;2.00;99.90
1878;DHT22;939;51.426;6.972;2023-12-04T00:40:30;2.00;99.90
1878;DHT22;939;51.426;6.972;2023-12-04T00:42:57;2.10;99.90
1878;DHT22;939;51.426;6.972;2023-12-04T00:45:24;2.10;99.90
1878;DHT22;939;51.426;6.972;2023-12-04T00:47:51;2.20;99.90
1878;DHT22;939;51.426;6.972;2023-12-04T00:50:18;2.30;99.90
1878;DHT22;939;51.426;6.972;2023-12-04T00:52:46;2.30;99.90
1878;DHT22;939;51.426;6.972;2023-12-04T00:55:13;2.30;99.90
1878;DHT22;939;51.426;6.972;2023-12-04T01:44:12;2.50;99.90
1878;DHT22;939;51.426;6.972;2023-12-04T01:46:39;2.60;99.90
1878;DHT22;939;51.426;6.972;2023-12-04T01:49:06;2.70;99.90
1878;DHT22;939;51.426;6.972;2023-12-04T01:51:33;2.60;99.90
1878;DHT22;939;51.426;6.972;2023-12-04T01:54:03;2.70;99.90
1878;DHT22;939;51.426;6.972;2023-12-04T01:56:31;2.60;99.90
1878;DHT22;939;51.426;6.972;2023-12-04T01:58:59;2.50;99.90
1878;DHT22;939;51.426;6.972;2023-12-04T02:01:27;2.40;99.90
1878;DHT22;939;51.426;6.972;2023-12-04T02:03:55;2.50;99.90
1878;DHT22;939;51.426;6.972;2023-12-04T02:06:24;2.50;99.90
1878;DHT22;939;51.426;6.972;2023-12-04T02:08:51;2.40;99.90
1878;DHT22;939;51.426;6.972;2023-12-04T02:11:18;2.50;99.90
1878;DHT22;939;51.426;6.972;2023-12-04T02:13:45;2.40;99.90
1878;DHT22;939;51.426;6.972;2023-12-04T02:16:15;2.30;99.90
1878;DHT22;939;51.426;6.972;2023-12-04T02:18:46;2.40;99.90
1878;DHT22;939;51.426;6.972;2023-12-04T02:21:13;2.40;99.90
1878;DHT22;939;51.426;6.972;2023-12-04T02:23:40;2.40;99.90
1878;DHT22;939;51.426;6.972;2023-12-04T02:26:13;2.50;99.90
1878;DHT22;939;51.426;6.972;2023-12-04T02:28:49;2.60;99.90
1878;DHT22;939;51.426;6.972;2023-12-04T02:31:18;2.60;99.90
1878;DHT22;939;51.426;6.972;2023-12-04T02:33:47;2.70;99.90
1878;DHT22;939;51.426;6.972;2023-12-04T02:36:15;2.90;99.90
1878;DHT22;939;51.426;6.972;2023-12-04T02:38:43;2.80;99.90
1878;DHT22;939;51.426;6.972;2023-12-04T02:41:11;2.70;99.90
1878;DHT22;939;51.426;6.972;2023-12-04T02:43:38;2.90;99.90
1878;DHT22;939;51.426;6.972;2023-12-04T02:46:05;2.90;99.90
1878;DHT22;939;51.426;6.972;2023-12-04T02:48:32;2.90;99.90
1878;DHT22;939;51.426;6.972;2023-12-04T02:50:59;2.90;99.90
1878;DHT22;939;51.426;6.972;2023-12-04T02:53:26;2.80;99.90
1878;DHT22;939;51.426;6.972;2023-12-04T02:55:53;2.90;99.90
1878;DHT22;939;51.426;6.972;2023-12-04T02:58:21;2.90;99.90
1878;DHT22;939;51.426;6.972;2023-12-04T03:00:48;2.70;99.90
1878;DHT22;939;51.426;6.972;2023-12-04T03:03:15;2.70;99.90
1878;DHT22;939;51.426;6.972;2023-12-04T03:05:42;2.60;99.90
1878;DHT22;939;51.426;6.972;2023-12-04T03:08:09;2.60;99.90
1878;DHT22;939;51.426;6.972;2023-12-04T03:10:36;2.60;99.90
1878;DHT22;939;51.426;6.972;2023-12-04T03:13:02;2.60;99.90
1878;DHT22;939;51.426;6.972;2023-12-04T03:15:31;2.50;99.90
1878;DHT22;939;51.426;6.972;2023-12-04T03:17:59;2.60;99.90
1878;DHT22;939;51.426;6.972;2023-12-04T03:20:26;2.60;99.90
1878;DHT22;939;51.426;6.972;2023-12-04T03:22:53;2.60;99.90
1878;DHT22;939;51.426;6.972;2023-12-04T03:25:20;2.60;99.90
1878;DHT22;939;51.426;6.972;2023-12-04T03:27:47;2.60;99.90
1878;DHT22;939;51.426;6.972;2023-12-04T03:30:14;2.60;99.90
1878;DHT22;939;51.426;6.972;2023-12-04T03:32:43;2.60;99.90
1878;DHT22;939;51.426;6.972;2023-12-04T03:35:10;2.60;99.90
1878;DHT22;939;51.426;6.972;2023-12-04T03:37:36;2.60;99.90
1878;DHT22;939;51.426;6.972;2023-12-04T03:40:04;2.60;99.90
1878;DHT22;939;51.426;6.972;2023-12-04T03:42:31;2.60;99.90
1878;DHT22;939;51.426;6.972;2023-12-04T03:44:58;2.60;99.90
1878;DHT22;939;51.426;6.972;2023-12-04T03:47:25;2.60;99.90
1878;DHT22;939;51.426;6.972;2023-12-04T03:49:54;2.70;99.90
1878;DHT22;939;51.426;6.972;2023-12-04T03:52:20;2.70;99.90
1878;DHT22;939;51.426;6.972;2023-12-04T03:54:47;2.70;99.90
1878;DHT22;939;51.426;6.972;2023-12-04T03:57:14;2.70;99.90
1878;DHT22;939;51.426;6.972;2023-12-04T03:59:41;2.70;99.90
1878;DHT22;939;51.426;6.972;2023-12-04T04:02:08;2.70;99.90
1878;DHT22;939;51.426;6.972;2023-12-04T04:04:35;2.70;99.90
1878;DHT22;939;51.426;6.972;2023-12-04T04:07:03;2.70;99.90
1878;DHT22;939;51.426;6.972;2023-12-04T04:09:31;2.70;99.90
1878;DHT22;939;51.426;6.972;2023-12-04T04:11:57;2.80;98.80
1878;DHT22;939;51.426;6.972;2023-12-04T04:14:24;2.80;99.00
1878;DHT22;939;51.426;6.972;2023-12-04T04:16:51;2.80;97.90
1878;DHT22;939;51.426;6.972;2023-12-04T04:19:18;2.80;98.30
1878;DHT22;939;51.426;6.972;2023-12-04T04:21:45;2.80;99.10
1878;DHT22;939;51.426;6.972;2023-12-04T04:24:13;2.80;98.30
1878;DHT22;939;51.426;6.972;2023-12-04T04:26:40;2.90;97.10
1878;DHT22;939;51.426;6.972;2023-12-04T04:29:07;2.90;97.30
1878;DHT22;939;51.426;6.972;2023-12-04T04:31:35;2.90;97.70
1878;DHT22;939;51.426;6.972;2023-12-04T04:34:02;2.90;97.30
1878;DHT22;939;51.426;6.972;2023-12-04T04:36:29;2.90;97.80
1878;DHT22;939;51.426;6.972;2023-12-04T04:38:55;3.00;97.50
1878;DHT22;939;51.426;6.972;2023-12-04T04:41:24;3.00;97.00
1878;DHT22;939;51.426;6.972;2023-12-04T04:43:51;3.00;96.50
1878;DHT22;939;51.426;6.972;2023-12-04T04:46:18;3.00;96.20
1878;DHT22;939;51.426;6.972;2023-12-04T04:48:46;2.90;95.80
1878;DHT22;939;51.426;6.972;2023-12-04T04:51:13;3.00;95.60
1878;DHT22;939;51.426;6.972;2023-12-04T04:53:40;3.00;95.70
1878;DHT22;939;51.426;6.972;2023-12-04T04:56:08;3.00;94.50
1878;DHT22;939;51.426;6.972;2023-12-04T04:58:37;3.00;94.90
1878;DHT22;939;51.426;6.972;2023-12-04T05:01:04;3.00;94.40
1878;DHT22;939;51.426;6.972;2023-12-04T05:03:31;3.00;95.10
1878;DHT22;939;51.426;6.972;2023-12-04T05:05:58;3.00;94.50
1878;DHT22;939;51.426;6.972;2023-12-04T05:08:25;3.00;94.30
1878;DHT22;939;51.426;6.972;2023-12-04T05:10:52;3.00;93.80
1878;DHT22;939;51.426;6.972;2023-12-04T05:13:19;3.00;95.80
1878;DHT22;939;51.426;6.972;2023-12-04T05:15:47;2.90;95.10
1878;DHT22;939;51.426;6.972;2023-12-04T05:18:14;3.10;95.70
1878;DHT22;939;51.426;6.972;2023-12-04T05:20:41;3.00;95.60
1878;DHT22;939;51.426;6.972;2023-12-04T05:23:11;3.00;95.00
1878;DHT22;939;51.426;6.972;2023-12-04T05:25:38;3.00;95.60
1878;DHT22;939;51.426;6.972;2023-12-04T05:28:05;3.00;95.10
1878;DHT22;939;51.426;6.972;2023-12-04T05:30:32;3.00;95.40
1878;DHT22;939;51.426;6.972;2023-12-04T05:33:00;2.90;95.80
1878;DHT22;939;51.426;6.972;2023-12-04T05:35:27;2.90;94.50
1878;DHT22;939;51.426;6.972;2023-12-04T05:37:55;2.90;95.20
1878;DHT22;939;51.426;6.972;2023-12-04T05:40:22;2.90;95.60
1878;DHT22;939;51.426;6.972;2023-12-04T05:42:49;2.80;95.90
1878;DHT22;939;51.426;6.972;2023-12-04T05:45:15;2.90;96.60
1878;DHT22;939;51.426;6.972;2023-12-04T05:47:42;2.80;95.60
1878;DHT22;939;51.426;6.972;2023-12-04T05:50:11;2.80;95.60
1878;DHT22;939;51.426;6.972;2023-12-04T05:52:38;2.80;96.60
1878;DHT22;939;51.426;6.972;2023-12-04T05:55:05;2.80;96.30
1878;DHT22;939;51.426;6.972;2023-12-04T05:57:32;2.80;95.90
1878;DHT22;939;51.426;6.972;2023-12-04T05:59:59;2.70;95.80
1878;DHT22;939;51.426;6.972;2023-12-04T06:02:26;2.70;97.10
1878;DHT22;939;51.426;6.972;2023-12-04T06:04:55;2.70;96.80
1878;DHT22;939;51.426;6.972;2023-12-04T06:07:24;2.80;96.70
1878;DHT22;939;51.426;6.972;2023-12-04T06:09:50;2.80;96.90
1878;DHT22;939;51.426;6.972;2023-12-04T06:12:17;2.70;97.30
1878;DHT22;939;51.426;6.972;2023-12-04T06:14:56;2.70;97.30
1878;DHT22;939;51.426;6.972;2023-12-04T06:17:26;2.70;97.30
1878;DHT22;939;51.426;6.972;2023-12-04T06:19:54;2.70;97.50
1878;DHT22;939;51.426;6.972;2023-12-04T06:22:21;2.70;97.90
1878;DHT22;939;51.426;6.972;2023-12-04T06:24:53;2.70;96.70
1878;DHT22;939;51.426;6.972;2023-12-04T06:27:20;2.70;96.60
1878;DHT22;939;51.426;6.972;2023-12-04T06:29:48;2.70;96.90
1878;DHT22;939;51.426;6.972;2023-12-04T06:32:17;2.60;96.80
1878;DHT22;939;51.426;6.972;2023-12-04T06:34:45;2.60;97.00
1878;DHT22;939;51.426;6.972;2023-12-04T06:37:12;2.60;97.70
1878;DHT22;939;51.426;6.972;2023-12-04T06:39:40;2.60;97.20
1878;DHT22;939;51.426;6.972;2023-12-04T06:42:11;2.60;97.00
1878;DHT22;939;51.426;6.972;2023-12-04T06:44:38;2.60;97.40
1878;DHT22;939;51.426;6.972;2023-12-04T06:47:08;2.50;97.10
1878;DHT22;939;51.426;6.972;2023-12-04T06:49:35;2.50;96.80
1878;DHT22;939;51.426;6.972;2023-12-04T06:52:03;2.50;97.10
1878;DHT22;939;51.426;6.972;2023-12-04T06:54:30;2.50;97.90
1878;DHT22;939;51.426;6.972;2023-12-04T06:56:57;2.50;97.30
1878;DHT22;939;51.426;6.972;2023-12-04T06:59:25;2.50;97.40
1878;DHT22;939;51.426;6.972;2023-12-04T07:38:19;2.80;95.50
1878;DHT22;939;51.426;6.972;2023-12-04T07:40:46;2.80;95.70
1878;DHT22;939;51.426;6.972;2023-12-04T07:43:13;2.80;95.90
1878;DHT22;939;51.426;6.972;2023-12-04T07:45:42;2.80;95.80
1878;DHT22;939;51.426;6.972;2023-12-04T07:48:11;2.70;95.50
1878;DHT22;939;51.426;6.972;2023-12-04T07:50:41;2.80;95.90
1878;DHT22;939;51.426;6.972;2023-12-04T07:53:08;2.80;95.70
1878;DHT22;939;51.426;6.972;2023-12-04T07:55:39;2.90;94.80
1878;DHT22;939;51.426;6.972;2023-12-04T07:58:06;2.90;95.00
1878;DHT22;939;51.426;6.972;2023-12-04T08:00:33;3.00;94.60
1878;DHT22;939;51.426;6.972;2023-12-04T08:03:01;3.00;94.40
1878;DHT22;939;51.426;6.972;2023-12-04T08:05:29;3.00;94.40
1878;DHT22;939;51.426;6.972;2023-12-04T08:07:58;3.10;92.60
1878;DHT22;939;51.426;6.972;2023-12-04T08:10:25;3.20;93.30
1878;DHT22;939;51.426;6.972;2023-12-04T08:12:54;3.30;92.10
1878;DHT22;939;51.426;6.972;2023-12-04T08:15:33;3.30;91.70
1878;DHT22;939;51.426;6.972;2023-12-04T08:18:00;3.50;91.40
1878;DHT22;939;51.426;6.972;2023-12-04T08:20:28;3.50;91.40
1878;DHT22;939;51.426;6.972;2023-12-04T08:22:55;3.40;91.90
1878;DHT22;939;51.426;6.972;2023-12-04T08:25:22;3.50;92.10
1878;DHT22;939;51.426;6.972;2023-12-04T08:27:49;3.50;93.30
1878;DHT22;939;51.426;6.972;2023-12-04T08:30:18;3.40;91.80
1878;DHT22;939;51.426;6.972;2023-12-04T08:32:45;3.30;92.00
1878;DHT22;939;51.426;6.972;2023-12-04T08:35:40;3.30;92.50
1878;DHT22;939;51.426;6.972;2023-12-04T08:38:08;3.30;92.80
1878;DHT22;939;51.426;6.972;2023-12-04T08:40:35;3.30;93.00
1878;DHT22;939;51.426;6.972;2023-12-04T08:43:02;3.30;92.60
1878;DHT22;939;51.426;6.972;2023-12-04T08:45:31;3.40;93.70
1878;DHT22;939;51.426;6.972;2023-12-04T08:47:59;3.40;93.30
1878;DHT22;939;51.426;6.972;2023-12-04T08:50:26;3.40;93.00
1878;DHT22;939;51.426;6.972;2023-12-04T08:52:53;3.30;92.40
1878;DHT22;939;51.426;6.972;2023-12-04T08:55:20;3.40;92.50
1878;DHT22;939;51.426;6.972;2023-12-04T08:57:47;3.40;93.40
1878;DHT22;939;51.426;6.972;2023-12-04T09:00:15;3.40;93.00
1878;DHT22;939;51.426;6.972;2023-12-04T09:02:44;3.50;92.50
1878;DHT22;939;51.426;6.972;2023-12-04T09:05:11;3.60;91.70
1878;DHT22;939;51.426;6.972;2023-12-04T09:07:38;3.60;92.20
1878;DHT22;939;51.426;6.972;2023-12-04T09:10:06;3.70;90.50
1878;DHT22;939;51.426;6.972;2023-12-04T09:12:36;3.70;90.40
1878;DHT22;939;51.426;6.972;2023-12-04T09:15:07;3.60;89.50
1878;DHT22;939;51.426;6.972;2023-12-04T09:17:34;3.70;90.20
1878;DHT22;939;51.426;6.972;2023-12-04T09:20:08;3.80;89.60
1878;DHT22;939;51.426;6.972;2023-12-04T09:22:37;3.70;90.10
1878;DHT22;939;51.426;6.972;2023-12-04T09:25:07;3.80;90.50
1878;DHT22;939;51.426;6.972;2023-12-04T09:27:34;3.80;90.10
1878;DHT22;939;51.426;6.972;2023-12-04T09:30:03;3.80;91.10
1878;DHT22;939;51.426;6.972;2023-12-04T09:32:36;3.90;91.00
1878;DHT22;939;51.426;6.972;2023-12-04T09:35:06;3.90;91.10
1878;DHT22;939;51.426;6.972;2023-12-04T09:37:33;4.00;90.90
1878;DHT22;939;51.426;6.972;2023-12-04T09:40:00;4.00;91.30
1878;DHT22;939;51.426;6.972;2023-12-04T09:42:31;4.10;92.00
1878;DHT22;939;51.426;6.972;2023-12-04T09:44:58;4.10;92.20
1878;DHT22;939;51.426;6.972;2023-12-04T09:47:27;4.10;92.30
1878;DHT22;939;51.426;6.972;2023-12-04T09:49:56;4.10;92.40
1878;DHT22;939;51.426;6.972;2023-12-04T09:52:27;4.20;92.30
1878;DHT22;939;51.426;6.972;2023-12-04T09:54:54;4.20;91.70
1878;DHT22;939;51.426;6.972;2023-12-04T09:57:23;4.30;91.80
1878;DHT22;939;51.426;6.972;2023-12-04T09:59:51;4.30;91.10
1878;DHT22;939;51.426;6.972;2023-12-04T10:02:19;4.40;90.60
1878;DHT22;939;51.426;6.972;2023-12-04T10:04:47;4.40;90.20
1878;DHT22;939;51.426;6.972;2023-12-04T10:07:15;4.40;90.30
1878;DHT22;939;51.426;6.972;2023-12-04T10:09:43;4.40;90.20
1878;DHT22;939;51.426;6.972;2023-12-04T10:12:10;4.30;90.10
1878;DHT22;939;51.426;6.972;2023-12-04T10:14:37;4.30;90.50
1878;DHT22;939;51.426;6.972;2023-12-04T10:17:14;4.30;90.90
1878;DHT22;939;51.426;6.972;2023-12-04T10:19:43;4.30;91.80
1878;DHT22;939;51.426;6.972;2023-12-04T10:22:13;4.30;90.90
1878;DHT22;939;51.426;6.972;2023-12-04T10:24:43;4.30;92.00
1878;DHT22;939;51.426;6.972;2023-12-04T10:27:10;4.20;91.90
1878;DHT22;939;51.426;6.972;2023-12-04T10:29:43;4.20;91.90
1878;DHT22;939;51.426;6.972;2023-12-04T10:32:11;4.20;92.60
1878;DHT22;939;51.426;6.972;2023-12-04T10:34:38;4.30;93.20
1878;DHT22;939;51.426;6.972;2023-12-04T10:37:10;4.20;92.60
1878;DHT22;939;51.426;6.972;2023-12-04T10:39:47;4.30;93.30
1878;DHT22;939;51.426;6.972;2023-12-04T10:42:25;4.20;93.80
1878;DHT22;939;51.426;6.972;2023-12-04T10:44:54;4.20;93.60
1878;DHT22;939;51.426;6.972;2023-12-04T10:47:22;4.20;94.10
1878;DHT22;939;51.426;6.972;2023-12-04T10:49:50;4.20;94.40
1878;DHT22;939;51.426;6.972;2023-12-04T10:52:17;4.20;94.10
1878;DHT22;939;51.426;6.972;2023-12-04T10:54:52;4.30;94.40
1878;DHT22;939;51.426;6.972;2023-12-04T10:57:24;4.30;93.70
1878;DHT22;939;51.426;6.972;2023-12-04T10:59:56;4.20;94.40
1878;DHT22;939;51.426;6.972;2023-12-04T11:02:26;4.30;94.30
1878;DHT22;939;51.426;6.972;2023-12-04T11:05:01;4.20;94.40
1878;DHT22;939;51.426;6.972;2023-12-04T11:07:34;4.20;94.70
1878;DHT22;939;51.426;6.972;2023-12-04T11:10:07;4.20;94.40
1878;DHT22;939;51.426;6.972;2023-12-04T11:12:38;4.20;95.30
1878;DHT22;939;51.426;6.972;2023-12-04T11:15:07;4.30;94.60
1878;DHT22;939;51.426;6.972;2023-12-04T11:17:36;4.30;95.50
1878;DHT22;939;51.426;6.972;2023-12-04T11:20:17;4.10;95.30
1878;DHT22;939;51.426;6.972;2023-12-04T11:22:46;4.10;95.90
1878;DHT22;939;51.426;6.972;2023-12-04T11:25:15;4.10;95.90
1878;DHT22;939;51.426;6.972;2023-12-04T11:27:44;4.00;96.40
1878;DHT22;939;51.426;6.972;2023-12-04T11:30:12;3.90;97.20
1878;DHT22;939;51.426;6.972;2023-12-04T11:32:45;3.90;97.70
1878;DHT22;939;51.426;6.972;2023-12-04T11:35:17;3.90;98.50
1878;DHT22;939;51.426;6.972;2023-12-04T11:37:46;3.80;99.30
1878;DHT22;939;51.426;6.972;2023-12-04T11:40:16;3.90;99.70
1878;DHT22;939;51.426;6.972;2023-12-04T11:42:43;4.00;99.90
1878;DHT22;939;51.426;6.972;2023-12-04T11:45:12;4.00;99.90
1878;DHT22;939;51.426;6.972;2023-12-04T11:47:52;3.90;99.90
1878;DHT22;939;51.426;6.972;2023-12-04T11:50:25;3.90;99.90
1878;DHT22;939;51.426;6.972;2023-12-04T11:52:52;3.80;99.90
1878;DHT22;939;51.426;6.972;2023-12-04T11:55:23;3.70;99.90
1878;DHT22;939;51.426;6.972;2023-12-04T11:57:55;3.80;99.90
1878;DHT22;939;51.426;6.972;2023-12-04T12:00:23;3.80;99.90
1878;DHT22;939;51.426;6.972;2023-12-04T12:03:05;3.80;99.90
1878;DHT22;939;51.426;6.972;2023-12-04T12:05:36;3.80;99.90
1878;DHT22;939;51.426;6.972;2023-12-04T12:08:05;3.70;99.90
1878;DHT22;939;51.426;6.972;2023-12-04T12:10:35;3.70;99.90
1878;DHT22;939;51.426;6.972;2023-12-04T12:13:05;3.70;99.90
1878;DHT22;939;51.426;6.972;2023-12-04T12:15:33;3.70;99.90
1878;DHT22;939;51.426;6.972;2023-12-04T12:18:00;3.60;99.90
1878;DHT22;939;51.426;6.972;2023-12-04T12:20:27;3.70;99.90
1878;DHT22;939;51.426;6.972;2023-12-04T12:22:54;3.60;99.90
1878;DHT22;939;51.426;6.972;2023-12-04T12:25:22;3.60;99.90
1878;DHT22;939;51.426;6.972;2023-12-04T12:27:53;3.50;99.90
1878;DHT22;939;51.426;6.972;2023-12-04T12:30:20;3.50;99.90
1878;DHT22;939;51.426;6.972;2023-12-04T12:32:50;3.50;99.90
1878;DHT22;939;51.426;6.972;2023-12-04T12:35:18;3.50;99.90
1878;DHT22;939;51.426;6.972;2023-12-04T12:37:45;3.40;99.90
1878;DHT22;939;51.426;6.972;2023-12-04T12:40:14;3.40;99.90
1878;DHT22;939;51.426;6.972;2023-12-04T12:42:43;3.40;99.90
1878;DHT22;939;51.426;6.972;2023-12-04T12:45:12;3.40;99.90
1878;DHT22;939;51.426;6.972;2023-12-04T12:47:41;3.40;99.90
1878;DHT22;939;51.426;6.972;2023-12-04T12:50:09;3.40;99.90
1878;DHT22;939;51.426;6.972;2023-12-04T12:52:39;3.40;99.90
1878;DHT22;939;51.426;6.972;2023-12-04T12:55:06;3.40;99.90
1878;DHT22;939;51.426;6.972;2023-12-04T12:57:35;3.40;99.90
1878;DHT22;939;51.426;6.972;2023-12-04T13:00:02;3.50;99.90
1878;DHT22;939;51.426;6.972;2023-12-04T13:02:35;3.50;99.90
1878;DHT22;939;51.426;6.972;2023-12-04T13:11:05;3.50;99.90
1878;DHT22;939;51.426;6.972;2023-12-04T13:13:32;3.40;99.90
1878;DHT22;939;51.426;6.972;2023-12-04T13:16:01;3.40;99.90
1878;DHT22;939;51.426;6.972;2023-12-04T13:18:30;3.50;99.90
1878;DHT22;939;51.426;6.972;2023-12-04T13:21:00;3.40;99.90
1878;DHT22;939;51.426;6.972;2023-12-04T13:23:27;3.50;99.90
1878;DHT22;939;51.426;6.972;2023-12-04T13:25:54;3.50;99.90
1878;DHT22;939;51.426;6.972;2023-12-04T13:28:21;3.50;99.90
1878;DHT22;939;51.426;6.972;2023-12-04T13:30:50;3.60;99.90
1878;DHT22;939;51.426;6.972;2023-12-04T13:33:18;3.60;99.90
1878;DHT22;939;51.426;6.972;2023-12-04T13:35:46;3.70;99.90
1878;DHT22;939;51.426;6.972;2023-12-04T13:38:13;3.60;99.90
1878;DHT22;939;51.426;6.972;2023-12-04T13:40:42;3.70;99.90
1878;DHT22;939;51.426;6.972;2023-12-04T13:43:18;3.70;99.90
1878;DHT22;939;51.426;6.972;2023-12-04T13:46:02;3.80;99.90
1878;DHT22;939;51.426;6.972;2023-12-04T13:48:35;3.80;99.90
1878;DHT22;939;51.426;6.972;2023-12-04T13:51:09;3.80;99.90
1878;DHT22;939;51.426;6.972;2023-12-04T13:53:36;3.80;99.90
1878;DHT22;939;51.426;6.972;2023-12-04T13:56:10;3.70;99.90
1878;DHT22;939;51.426;6.972;2023-12-04T13:58:51;3.70;99.90
1878;DHT22;939;51.426;6.972;2023-12-04T14:01:22;3.60;99.90
1878;DHT22;939;51.426;6.972;2023-12-04T14:03:50;3.60;99.90
1878;DHT22;939;51.426;6.972;2023-12-04T14:06:19;3.60;99.90
1878;DHT22;939;51.426;6.972;2023-12-04T14:08:46;3.60;99.90
1878;DHT22;939;51.426;6.972;2023-12-04T14:11:13;3.60;99.90
1878;DHT22;939;51.426;6.972;2023-12-04T14:13:41;3.60;99.90
1878;DHT22;939;51.426;6.972;2023-12-04T14:16:09;3.60;99.90
1878;DHT22;939;51.426;6.972;2023-12-04T14:18:36;3.70;99.90
1878;DHT22;939;51.426;6.972;2023-12-04T14:21:03;3.60;99.90
1878;DHT22;939;51.426;6.972;2023-12-04T14:23:32;3.60;99.90
1878;DHT22;939;51.426;6.972;2023-12-04T14:25:59;3.60;99.90
1878;DHT22;939;51.426;6.972;2023-12-04T14:28:27;3.70;99.90
1878;DHT22;939;51.426;6.972;2023-12-04T14:30:54;3.90;99.90
1878;DHT22;939;51.426;6.972;2023-12-04T14:33:21;3.80;99.90
1878;DHT22;939;51.426;6.972;2023-12-04T14:35:48;3.80;99.90
1878;DHT22;939;51.426;6.972;2023-12-04T14:38:15;3.80;99.90
1878;DHT22;939;51.426;6.972;2023-12-04T14:40:44;3.80;99.90
1878;DHT22;939;51.426;6.972;2023-12-04T14:43:11;3.90;99.90
1878;DHT22;939;51.426;6.972;2023-12-04T14:45:38;3.90;99.90
1878;DHT22;939;51.426;6.972;2023-12-04T14:48:05;3.90;99.90
1878;DHT22;939;51.426;6.972;2023-12-04T14:50:32;3.80;99.90
1878;DHT22;939;51.426;6.972;2023-12-04T14:53:00;3.90;99.90
1878;DHT22;939;51.426;6.972;2023-12-04T14:55:42;3.90;99.90
1878;DHT22;939;51.426;6.972;2023-12-04T14:58:27;3.90;99.90
1878;DHT22;939;51.426;6.972;2023-12-04T15:01:27;3.80;99.90
1878;DHT22;939;51.426;6.972;2023-12-04T15:04:25;3.80;99.90
1878;DHT22;939;51.426;6.972;2023-12-04T15:07:10;3.80;99.90
1878;DHT22;939;51.426;6.972;2023-12-04T15:09:56;3.80;99.90
1878;DHT22;939;51.426;6.972;2023-12-04T15:12:53;3.70;99.90
1878;DHT22;939;51.426;6.972;2023-12-04T15:15:37;3.60;99.90
1878;DHT22;939;51.426;6.972;2023-12-04T15:18:28;3.60;99.90
1878;DHT22;939;51.426;6.972;2023-12-04T15:21:04;3.50;99.90
1878;DHT22;939;51.426;6.972;2023-12-04T15:23:31;3.50;99.90
1878;DHT22;939;51.426;6.972;2023-12-04T15:25:58;3.60;99.90
1878;DHT22;939;51.426;6.972;2023-12-04T15:28:25;3.60;99.90
1878;DHT22;939;51.426;6.972;2023-12-04T15:30:52;3.50;99.90
1878;DHT22;939;51.426;6.972;2023-12-04T15:33:18;3.50;99.90
1878;DHT22;939;51.426;6.972;2023-12-04T15:35:46;3.50;99.90
1878;DHT22;939;51.426;6.972;2023-12-04T15:38:13;3.60;99.90
1878;DHT22;939;51.426;6.972;2023-12-04T15:40:39;3.60;99.90
1878;DHT22;939;51.426;6.972;2023-12-04T15:43:06;3.60;99.90
1878;DHT22;939;51.426;6.972;2023-12-04T15:45:35;3.70;99.90
1878;DHT22;939;51.426;6.972;2023-12-04T15:48:01;3.60;99.90
1878;DHT22;939;51.426;6.972;2023-12-04T15:50:29;3.70;99.90
1878;DHT22;939;51.426;6.972;2023-12-04T15:52:56;3.70;99.90
1878;DHT22;939;51.426;6.972;2023-12-04T15:55:25;3.70;99.90
1878;DHT22;939;51.426;6.972;2023-12-04T15:57:52;3.70;99.90
1878;DHT22;939;51.426;6.972;2023-12-04T16:00:21;3.70;99.90
1878;DHT22;939;51.426;6.972;2023-12-04T16:02:49;3.60;99.90
1878;DHT22;939;51.426;6.972;2023-12-04T16:05:16;3.60;99.90
1878;DHT22;939;51.426;6.972;2023-12-04T16:07:44;3.50;99.90
1878;DHT22;939;51.426;6.972;2023-12-04T16:10:14;3.50;99.90
1878;DHT22;939;51.426;6.972;2023-12-04T16:12:42;3.50;99.90
1878;DHT22;939;51.426;6.972;2023-12-04T16:15:09;3.50;99.90
1878;DHT22;939;51.426;6.972;2023-12-04T16:17:38;3.50;99.90
1878;DHT22;939;51.426;6.972;2023-12-04T16:20:07;3.50;99.90
1878;DHT22;939;51.426;6.972;2023-12-04T16:22:36;3.50;99.90
1878;DHT22;939;51.426;6.972;2023-12-04T16:25:04;3.50;99.90
1878;DHT22;939;51.426;6.972;2023-12-04T16:27:31;3.40;99.90
1878;DHT22;939;51.426;6.972;2023-12-04T16:29:58;3.40;99.90
1878;DHT22;939;51.426;6.972;2023-12-04T16:32:25;3.30;99.90
1878;DHT22;939;51.426;6.972;2023-12-04T16:34:52;3.30;99.90
1878;DHT22;939;51.426;6.972;2023-12-04T16:37:21;3.30;99.90
1878;DHT22;939;51.426;6.972;2023-12-04T16:39:48;3.20;99.90
1878;DHT22;939;51.426;6.972;2023-12-04T16:42:15;3.20;99.90
1878;DHT22;939;51.426;6.972;2023-12-04T16:44:42;3.20;99.90
1878;DHT22;939;51.426;6.972;2023-12-04T16:47:09;3.20;99.90
1878;DHT22;939;51.426;6.972;2023-12-04T16:49:36;3.20;99.90
1878;DHT22;939;51.426;6.972;2023-12-04T16:52:03;3.20;99.90
1878;DHT22;939;51.426;6.972;2023-12-04T16:54:32;3.10;99.90
1878;DHT22;939;51.426;6.972;2023-12-04T16:56:59;3.20;99.90
1878;DHT22;939;51.426;6.972;2023-12-04T16:59:26;3.20;99.90
1878;DHT22;939;51.426;6.972;2023-12-04T17:01:53;3.20;99.90
1878;DHT22;939;51.426;6.972;2023-12-04T17:04:20;3.20;99.90
1878;DHT22;939;51.426;6.972;2023-12-04T17:06:47;3.20;99.90
1878;DHT22;939;51.426;6.972;2023-12-04T17:09:14;3.10;99.90
1878;DHT22;939;51.426;6.972;2023-12-04T17:11:43;3.10;99.90
1878;DHT22;939;51.426;6.972;2023-12-04T17:14:10;3.10;99.90
1878;DHT22;939;51.426;6.972;2023-12-04T17:16:37;3.10;99.90
1878;DHT22;939;51.426;6.972;2023-12-04T17:19:04;3.20;99.90
1878;DHT22;939;51.426;6.972;2023-12-04T17:21:31;3.30;99.90
1878;DHT22;939;51.426;6.972;2023-12-04T17:23:59;3.30;99.90
1878;DHT22;939;51.426;6.972;2023-12-04T17:26:26;3.30;99.90
1878;DHT22;939;51.426;6.972;2023-12-04T17:28:56;3.30;99.90
1878;DHT22;939;51.426;6.972;2023-12-04T17:31:23;3.30;99.90
1878;DHT22;939;51.426;6.972;2023-12-04T17:33:50;3.20;99.90
1878;DHT22;939;51.426;6.972;2023-12-04T17:36:17;3.20;99.90
1878;DHT22;939;51.426;6.972;2023-12-04T17:38:44;3.20;99.90
1878;DHT22;939;51.426;6.972;2023-12-04T17:41:12;3.30;99.90
1878;DHT22;939;51.426;6.972;2023-12-04T17:43:40;3.30;99.90
1878;DHT22;939;51.426;6.972;2023-12-04T17:46:08;3.30;99.90
1878;DHT22;939;51.426;6.972;2023-12-04T17:48:35;3.30;99.90
1878;DHT22;939;51.426;6.972;2023-12-04T17:51:03;3.30;99.90
1878;DHT22;939;51.426;6.972;2023-12-04T17:53:31;3.20;99.90
1878;DHT22;939;51.426;6.972;2023-12-04T17:55:58;3.20;99.90
1878;DHT22;939;51.426;6.972;2023-12-04T17:58:24;3.00;99.90
1878;DHT22;939;51.426;6.972;2023-12-04T18:00:51;3.10;99.90
1878;DHT22;939;51.426;6.972;2023-12-04T18:03:20;3.10;99.90
1878;DHT22;939;51.426;6.972;2023-12-04T18:05:47;3.10;99.90
1878;DHT22;939;51.426;6.972;2023-12-04T18:08:14;3.10;99.90
1878;DHT22;939;51.426;6.972;2023-12-04T18:10:41;3.10;99.90
1878;DHT22;939;51.426;6.972;2023-12-04T18:13:08;3.10;99.90